Time;durP1;ratioP1;P1;durP2;ratioP2;P2;SDS_P1;SDS_P2;PMS_P1;PMS_P2;Temp;Humidity;BMP_temperature;BMP_pressure;BME280_temperature;BME280_humidity;BME280_pressure;Samples;Min_cycle;Max_cycle;Signal;HPM_P1;HPM_P2
2022/01/30 05:01:14;;;;;;;6.67;2.83;;;7.80;99.90;;;;;;5705684;22;20503;-69
2022/01/30 05:03:55;;;;;;;9.27;3.27;;;7.70;99.90;;;;;;5035259;28;20437;-67
2022/01/30 05:06:32;;;;;;;5.63;3.20;;;7.70;99.90;;;;;;5035268;28;20502;-67
2022/01/30 05:08:59;;;;;;;6.53;3.60;;;7.70;99.90;;;;;;5034179;28;20535;-67
2022/01/30 05:11:26;;;;;;;4.00;2.77;;;7.70;99.90;;;;;;5035175;28;20476;-70
2022/01/30 05:13:53;;;;;;;4.00;3.47;;;7.60;99.90;;;;;;5035123;28;20479;-68
2022/01/30 05:16:23;;;;;;;7.20;3.20;;;7.60;99.90;;;;;;5035274;28;20940;-70
2022/01/30 05:18:50;;;;;;;7.73;3.20;;;7.50;99.90;;;;;;5034630;28;20969;-69
2022/01/30 05:21:19;;;;;;;5.50;3.00;;;7.50;99.90;;;;;;5034792;28;20474;-69
2022/01/30 05:23:47;;;;;;;8.03;3.00;;;7.40;99.90;;;;;;5034955;28;20498;-69
2022/01/30 05:26:14;;;;;;;3.80;3.30;;;7.40;99.90;;;;;;5034792;28;20459;-68
2022/01/30 05:28:42;;;;;;;9.03;3.63;;;7.30;99.90;;;;;;5034777;28;20463;-68
2022/01/30 05:31:09;;;;;;;5.40;3.30;;;7.30;99.90;;;;;;5034776;28;20479;-68
2022/01/30 05:33:38;;;;;;;11.27;3.70;;;7.20;99.90;;;;;;5034794;28;20486;-68
2022/01/30 05:36:06;;;;;;;8.40;3.83;;;7.10;99.90;;;;;;5035049;28;20463;-69
2022/01/30 05:38:33;;;;;;;12.70;4.33;;;7.00;99.90;;;;;;5034481;28;20456;-69
2022/01/30 05:41:00;;;;;;;6.57;4.30;;;7.00;99.90;;;;;;5034275;28;20985;-69
2022/01/30 05:43:30;;;;;;;7.37;4.17;;;6.90;99.90;;;;;;5034436;28;20456;-66
2022/01/30 05:46:08;;;;;;;8.63;3.63;;;6.90;99.90;;;;;;5034627;28;20459;-69
2022/01/30 05:48:37;;;;;;;4.60;3.67;;;6.90;99.90;;;;;;5034710;28;20474;-68
2022/01/30 05:51:04;;;;;;;7.30;3.27;;;6.90;99.90;;;;;;5034596;28;20483;-68
2022/01/30 05:53:31;;;;;;;11.13;5.23;;;6.90;99.90;;;;;;5034282;28;20453;-69
2022/01/30 05:55:58;;;;;;;5.43;3.97;;;7.00;99.90;;;;;;5034392;28;20798;-69
2022/01/30 05:58:24;;;;;;;6.33;3.47;;;7.00;99.90;;;;;;5033991;28;20453;-69
2022/01/30 06:00:51;;;;;;;6.00;4.00;;;7.00;99.90;;;;;;5033846;28;20505;-68
2022/01/30 06:03:18;;;;;;;9.57;5.10;;;7.10;99.90;;;;;;5033954;28;20946;-68
2022/01/30 06:05:46;;;;;;;7.73;4.70;;;7.10;99.90;;;;;;5034155;28;20457;-67
2022/01/30 06:08:16;;;;;;;9.20;5.00;;;7.10;99.90;;;;;;5034241;28;20480;-66
2022/01/30 06:10:43;;;;;;;8.20;5.50;;;7.10;99.90;;;;;;5033994;28;20574;-68
2022/01/30 06:13:10;;;;;;;10.50;4.43;;;7.20;99.90;;;;;;5034107;28;20453;-67
2022/01/30 06:15:36;;;;;;;9.10;4.67;;;7.10;99.90;;;;;;5033855;28;20482;-67
2022/01/30 06:18:03;;;;;;;9.03;4.40;;;7.20;99.90;;;;;;5047928;28;20455;-67
2022/01/30 06:20:30;;;;;;;7.90;4.47;;;7.20;99.90;;;;;;5050162;28;20460;-67
2022/01/30 06:22:58;;;;;;;6.63;4.27;;;7.20;99.90;;;;;;5034567;28;20463;-67
2022/01/30 06:25:25;;;;;;;7.57;4.10;;;7.20;99.90;;;;;;5034035;28;20456;-68
2022/01/30 06:27:52;;;;;;;10.80;3.90;;;7.20;99.90;;;;;;5033845;28;20478;-67
2022/01/30 06:30:21;;;;;;;9.27;4.20;;;7.20;99.90;;;;;;5034029;28;20463;-69
2022/01/30 06:32:49;;;;;;;7.07;3.60;;;7.10;99.90;;;;;;5033435;28;20890;-66
2022/01/30 06:35:16;;;;;;;6.70;3.70;;;7.10;99.90;;;;;;5033717;28;20553;-68
2022/01/30 06:37:43;;;;;;;6.77;3.87;;;7.10;99.90;;;;;;5033637;28;20455;-68
2022/01/30 06:40:13;;;;;;;9.10;4.00;;;7.10;99.90;;;;;;5033794;28;20842;-67
2022/01/30 06:42:39;;;;;;;11.83;4.10;;;7.10;99.90;;;;;;5033690;28;20453;-67
2022/01/30 06:45:07;;;;;;;8.53;3.20;;;7.10;99.90;;;;;;5033878;28;20459;-67
2022/01/30 06:47:41;;;;;;;7.50;4.40;;;7.10;99.90;;;;;;5033468;28;20466;-68
2022/01/30 06:50:08;;;;;;;6.37;3.77;;;7.10;99.90;;;;;;5033848;28;20440;-67
2022/01/30 06:52:35;;;;;;;7.50;3.23;;;7.00;99.90;;;;;;5033661;28;20872;-68
2022/01/30 06:55:01;;;;;;;7.97;3.50;;;7.00;99.90;;;;;;5033724;28;20485;-68
2022/01/30 06:57:29;;;;;;;14.73;3.60;;;7.00;99.90;;;;;;5033332;28;20451;-68
2022/01/30 06:59:56;;;;;;;5.77;3.43;;;7.10;99.90;;;;;;5033666;28;20459;-68
2022/01/30 07:02:23;;;;;;;9.50;3.23;;;7.10;99.90;;;;;;5033318;28;20484;-68
2022/01/30 07:04:49;;;;;;;4.90;3.50;;;7.10;99.90;;;;;;5033257;28;20960;-69
2022/01/30 07:07:16;;;;;;;9.93;3.83;;;7.00;99.90;;;;;;5033380;28;20463;-67
2022/01/30 07:09:43;;;;;;;4.20;3.17;;;7.10;99.90;;;;;;5033741;28;20464;-68
2022/01/30 07:12:10;;;;;;;7.40;3.67;;;7.00;99.90;;;;;;5033686;28;20470;-68
2022/01/30 07:14:38;;;;;;;9.20;3.50;;;7.00;99.90;;;;;;5033660;28;20487;-68
2022/01/30 07:17:05;;;;;;;7.33;3.30;;;7.00;99.90;;;;;;5033545;28;20459;-67
2022/01/30 07:19:32;;;;;;;5.60;2.73;;;7.00;99.90;;;;;;5033527;28;20466;-67
2022/01/30 07:21:59;;;;;;;9.63;3.00;;;7.00;99.90;;;;;;5033646;28;20472;-68
2022/01/30 07:24:25;;;;;;;8.27;3.47;;;7.00;99.90;;;;;;5033602;28;20447;-67
2022/01/30 07:26:52;;;;;;;10.40;3.60;;;6.90;99.90;;;;;;5033494;28;20456;-67
2022/01/30 07:29:19;;;;;;;8.87;3.30;;;7.00;99.90;;;;;;5033458;28;20447;-68
2022/01/30 07:31:47;;;;;;;8.30;3.20;;;7.00;99.90;;;;;;5033107;28;20978;-67
2022/01/30 07:34:13;;;;;;;12.33;3.63;;;7.00;99.90;;;;;;5036585;28;20480;-67
2022/01/30 07:36:41;;;;;;;8.33;3.27;;;7.00;99.90;;;;;;5036654;28;20463;-67
2022/01/30 07:39:11;;;;;;;12.17;4.10;;;7.10;99.90;;;;;;5036325;28;20554;-67
2022/01/30 07:41:38;;;;;;;7.47;3.17;;;7.10;99.90;;;;;;5036232;28;21020;-66
2022/01/30 07:44:06;;;;;;;9.20;3.80;;;7.10;99.90;;;;;;5036619;28;20443;-66
2022/01/30 07:46:33;;;;;;;11.30;3.17;;;7.00;99.90;;;;;;5036192;28;20456;-67
2022/01/30 07:49:01;;;;;;;7.47;3.10;;;7.00;99.90;;;;;;5037328;28;20463;-66
2022/01/30 07:51:28;;;;;;;10.10;3.70;;;7.10;99.90;;;;;;5036668;28;20979;-67
2022/01/30 07:53:54;;;;;;;10.60;4.70;;;7.20;99.90;;;;;;5036742;28;20455;-67
2022/01/30 07:56:23;;;;;;;6.60;3.37;;;7.20;99.90;;;;;;5036646;28;20811;-67
2022/01/30 07:58:50;;;;;;;6.57;3.57;;;7.30;99.90;;;;;;5036662;28;20465;-67
2022/01/30 08:01:17;;;;;;;11.00;4.37;;;7.70;99.90;;;;;;5036534;28;20502;-67
2022/01/30 08:03:43;;;;;;;10.40;4.60;;;7.90;99.90;;;;;;5037001;28;20460;-67
2022/01/30 08:06:12;;;;;;;9.20;3.90;;;8.20;99.90;;;;;;5037841;28;20463;-67
2022/01/30 08:08:38;;;;;;;7.93;3.90;;;8.50;99.90;;;;;;5037190;28;20452;-68
2022/01/30 08:11:05;;;;;;;7.17;3.50;;;8.70;99.90;;;;;;5035935;28;20993;-68
2022/01/30 08:13:32;;;;;;;10.50;3.53;;;8.90;99.90;;;;;;5036751;28;20452;-68
2022/01/30 08:15:58;;;;;;;11.43;4.60;;;9.10;99.90;;;;;;5036232;28;20474;-68
2022/01/30 08:18:25;;;;;;;9.23;3.70;;;9.60;99.90;;;;;;5036086;28;20457;-70
2022/01/30 08:20:54;;;;;;;7.83;3.90;;;10.60;99.90;;;;;;5035869;28;20480;-70
2022/01/30 08:23:23;;;;;;;6.90;3.90;;;11.90;99.90;;;;;;5036036;28;20458;-71
2022/01/30 08:25:50;;;;;;;9.73;4.13;;;13.00;99.90;;;;;;5035885;28;20451;-70
2022/01/30 08:28:17;;;;;;;9.60;6.83;;;13.90;99.90;;;;;;5036107;28;20456;-69
2022/01/30 08:30:45;;;;;;;9.97;6.03;;;15.10;99.90;;;;;;5036099;28;20477;-70
2022/01/30 08:33:15;;;;;;;9.43;4.60;;;15.30;99.90;;;;;;5035928;28;20807;-69
2022/01/30 08:35:42;;;;;;;19.40;10.77;;;16.20;99.90;;;;;;5035493;28;20476;-69
2022/01/30 08:38:10;;;;;;;6.50;4.03;;;17.10;99.90;;;;;;5035429;28;20460;-69
2022/01/30 08:40:38;;;;;;;10.07;5.30;;;17.60;99.60;;;;;;5035560;28;20480;-70
2022/01/30 08:43:05;;;;;;;10.90;5.27;;;17.60;97.20;;;;;;5035589;28;20498;-70
2022/01/30 08:45:32;;;;;;;10.27;3.30;;;18.00;97.50;;;;;;5035804;28;20452;-70
2022/01/30 08:47:59;;;;;;;8.00;3.97;;;18.10;93.00;;;;;;5035655;28;20456;-67
2022/01/30 08:50:26;;;;;;;7.67;3.60;;;18.10;91.60;;;;;;5035770;28;20460;-67
2022/01/30 08:52:53;;;;;;;5.73;3.00;;;18.30;89.20;;;;;;5037755;28;20452;-67
2022/01/30 08:55:20;;;;;;;5.27;2.90;;;18.40;90.00;;;;;;5036504;28;21109;-68
2022/01/30 08:57:49;;;;;;;7.53;3.20;;;18.10;85.90;;;;;;5034905;28;20786;-67
2022/01/30 09:00:17;;;;;;;10.27;3.60;;;18.10;83.80;;;;;;5035194;28;20453;-66
2022/01/30 09:02:44;;;;;;;7.17;3.37;;;18.30;84.50;;;;;;5035154;28;20459;-67
2022/01/30 09:05:12;;;;;;;9.30;3.70;;;18.50;79.30;;;;;;5034887;28;20939;-68
2022/01/30 09:07:40;;;;;;;5.17;2.23;;;18.20;79.90;;;;;;5036127;28;20947;-67
2022/01/30 09:10:10;;;;;;;10.83;3.50;;;18.80;77.30;;;;;;5035466;28;20464;-67
2022/01/30 09:12:36;;;;;;;9.40;3.00;;;18.90;74.40;;;;;;5035022;28;20476;-67
2022/01/30 09:15:07;;;;;;;5.60;2.57;;;19.00;71.70;;;;;;5034583;28;21013;-67
2022/01/30 09:17:34;;;;;;;8.20;3.77;;;18.90;68.40;;;;;;5035180;28;20436;-66
2022/01/30 09:20:01;;;;;;;4.83;2.73;;;19.00;68.10;;;;;;5035070;28;20452;-67
2022/01/30 09:22:28;;;;;;;8.03;3.23;;;19.00;66.70;;;;;;5036398;28;20950;-67
2022/01/30 09:24:55;;;;;;;5.30;2.87;;;18.90;64.60;;;;;;5035461;28;20452;-66
2022/01/30 09:27:21;;;;;;;6.87;3.33;;;19.00;62.90;;;;;;5035076;28;20457;-66
2022/01/30 09:29:48;;;;;;;12.50;3.23;;;18.30;65.60;;;;;;5035091;28;20452;-66
2022/01/30 09:32:17;;;;;;;6.00;2.60;;;18.30;64.50;;;;;;5035079;28;20472;-67
2022/01/30 09:34:45;;;;;;;6.03;2.23;;;17.90;65.40;;;;;;5034952;28;20452;-67
2022/01/30 09:37:12;;;;;;;6.30;3.17;;;16.90;65.80;;;;;;5035294;28;20915;-68
2022/01/30 09:39:38;;;;;;;8.47;3.53;;;16.30;68.20;;;;;;5035464;28;20819;-69
2022/01/30 09:42:07;;;;;;;7.33;2.93;;;16.30;68.80;;;;;;5034764;28;20476;-69
2022/01/30 09:44:39;;;;;;;8.23;2.30;;;16.50;68.70;;;;;;5035379;28;20499;-70
2022/01/30 09:47:07;;;;;;;12.40;2.97;;;15.70;71.10;;;;;;5034634;28;20448;-71
2022/01/30 09:49:38;;;;;;;8.20;3.10;;;15.00;74.70;;;;;;5034582;28;20463;-69
2022/01/30 09:52:05;;;;;;;10.80;2.77;;;14.10;79.60;;;;;;5034557;28;20479;-69
2022/01/30 09:54:32;;;;;;;11.57;3.40;;;13.00;84.80;;;;;;5034156;28;20464;-68
2022/01/30 09:56:59;;;;;;;11.10;4.07;;;12.40;90.40;;;;;;5033954;28;20483;-69
2022/01/30 09:59:26;;;;;;;5.97;3.10;;;11.80;93.50;;;;;;5034333;28;20826;-69
2022/01/30 10:01:52;;;;;;;9.77;3.30;;;10.90;96.30;;;;;;5034138;28;20482;-68
2022/01/30 10:04:19;;;;;;;13.93;3.67;;;10.00;99.90;;;;;;5034290;28;20457;-69
2022/01/30 10:06:58;;;;;;;13.30;3.40;;;9.60;99.90;;;;;;5034600;28;20813;-69
2022/01/30 10:09:28;;;;;;;12.10;3.90;;;9.50;99.90;;;;;;5034056;28;20444;-68
2022/01/30 10:12:12;;;;;;;7.70;2.60;;;9.20;99.90;;;;;;5034484;28;20477;-68
2022/01/30 10:14:59;;;;;;;7.93;2.57;;;8.90;99.90;;;;;;5034495;28;20438;-68
2022/01/30 10:17:32;;;;;;;12.37;5.60;;;8.80;99.90;;;;;;5034171;28;20799;-68
2022/01/30 10:20:11;;;;;;;11.67;3.60;;;9.10;99.90;;;;;;5034547;28;20447;-68
2022/01/30 10:22:50;;;;;;;17.60;4.50;;;9.00;99.90;;;;;;5034350;28;20440;-69
2022/01/30 10:25:25;;;;;;;8.07;3.40;;;9.10;99.90;;;;;;5034141;28;20443;-69
2022/01/30 10:28:06;;;;;;;9.83;4.30;;;9.50;99.90;;;;;;5035596;28;20471;-66
2022/01/30 10:30:41;;;;;;;12.77;3.83;;;9.60;99.90;;;;;;5033678;28;20899;-66
2022/01/30 10:33:09;;;;;;;9.93;4.07;;;9.80;99.90;;;;;;5034105;28;20441;-66
2022/01/30 10:35:46;;;;;;;5.80;3.70;;;10.30;99.90;;;;;;5033918;28;20484;-68
2022/01/30 10:38:20;;;;;;;10.70;3.60;;;11.70;99.90;;;;;;5033818;28;20439;-66
2022/01/30 10:40:53;;;;;;;13.50;3.37;;;12.50;99.90;;;;;;5035297;28;20574;-67
2022/01/30 10:43:20;;;;;;;9.60;3.23;;;12.90;99.90;;;;;;5039414;28;20771;-67
2022/01/30 10:45:47;;;;;;;8.20;2.97;;;13.20;97.90;;;;;;5038402;28;20446;-66
2022/01/30 10:48:17;;;;;;;8.63;3.33;;;13.60;95.30;;;;;;5038309;28;20458;-67
2022/01/30 10:50:46;;;;;;;7.63;2.80;;;14.10;93.40;;;;;;5038923;28;20507;-67
2022/01/30 10:53:22;;;;;;;8.03;2.57;;;13.70;92.50;;;;;;5038131;28;20448;-68
2022/01/30 10:55:50;;;;;;;10.83;2.90;;;13.80;90.40;;;;;;5037520;28;20474;-67
2022/01/30 10:58:19;;;;;;;7.30;2.60;;;13.50;90.30;;;;;;5036423;28;20818;-66
2022/01/30 11:00:48;;;;;;;9.10;2.30;;;12.40;90.30;;;;;;5036002;28;20493;-67
2022/01/30 11:03:44;;;;;;;9.23;3.03;;;11.60;91.00;;;;;;5036530;28;20451;-69
2022/01/30 11:06:13;;;;;;;12.10;2.67;;;11.20;99.90;;;;;;5036403;28;20436;-68
2022/01/30 11:08:45;;;;;;;7.77;2.77;;;11.10;99.90;;;;;;5039904;28;20458;-68
2022/01/30 11:11:23;;;;;;;7.67;2.40;;;11.30;99.90;;;;;;5040408;28;20519;-68
2022/01/30 11:14:13;;;;;;;9.07;2.83;;;11.60;97.90;;;;;;5040231;28;20824;-69
2022/01/30 11:16:58;;;;;;;8.13;2.57;;;11.70;99.90;;;;;;5037452;28;20460;-69
2022/01/30 11:19:27;;;;;;;7.20;2.73;;;11.90;97.00;;;;;;5037721;28;20444;-69
2022/01/30 11:21:57;;;;;;;8.30;2.10;;;11.90;96.10;;;;;;5038102;28;20481;-70
2022/01/30 11:24:27;;;;;;;6.47;2.60;;;11.90;95.90;;;;;;5038562;28;20467;-70
2022/01/30 11:26:54;;;;;;;9.30;2.87;;;11.70;93.80;;;;;;5037806;28;20458;-70
2022/01/30 11:29:22;;;;;;;8.40;2.50;;;11.30;95.40;;;;;;5039107;28;20482;-70
2022/01/30 11:31:49;;;;;;;6.43;2.77;;;11.50;98.40;;;;;;5037764;28;20474;-71
2022/01/30 11:34:16;;;;;;;6.57;2.50;;;11.60;98.80;;;;;;5037088;28;20481;-71
2022/01/30 11:36:44;;;;;;;7.77;2.23;;;11.40;95.50;;;;;;5037068;28;20485;-70
2022/01/30 11:39:16;;;;;;;6.43;3.00;;;11.30;97.10;;;;;;5037762;28;20925;-71
2022/01/30 11:42:09;;;;;;;9.47;3.23;;;11.20;96.80;;;;;;5036905;28;20980;-70
2022/01/30 11:44:36;;;;;;;11.40;3.37;;;11.20;99.10;;;;;;5036939;28;20448;-71
2022/01/30 11:47:17;;;;;;;7.13;2.70;;;11.20;98.80;;;;;;5037400;28;20450;-68
2022/01/30 11:49:47;;;;;;;14.33;3.60;;;11.10;96.90;;;;;;5037299;28;20442;-68
2022/01/30 11:52:15;;;;;;;6.67;3.10;;;10.90;97.00;;;;;;5037640;28;20478;-68
2022/01/30 11:54:43;;;;;;;13.07;3.33;;;10.60;97.30;;;;;;5036688;28;20453;-69
2022/01/30 11:57:43;;;;;;;6.17;3.10;;;10.30;97.80;;;;;;5037478;28;20478;-69
2022/01/30 12:00:34;;;;;;;9.90;2.80;;;10.10;99.30;;;;;;5041887;28;20437;-68
2022/01/30 12:03:25;;;;;;;13.03;4.03;;;9.80;99.90;;;;;;5036238;28;20525;-68
2022/01/30 12:05:53;;;;;;;12.17;3.27;;;9.80;99.90;;;;;;5036779;28;20765;-68
2022/01/30 12:08:44;;;;;;;11.97;3.97;;;9.60;99.90;;;;;;5036863;28;20441;-67
2022/01/30 12:11:47;;;;;;;11.73;3.50;;;9.40;99.90;;;;;;5036084;28;20468;-67
2022/01/30 12:14:45;;;;;;;11.27;3.77;;;9.20;99.90;;;;;;5036109;28;20443;-67
2022/01/30 12:17:14;;;;;;;14.50;2.87;;;9.00;99.90;;;;;;5035878;28;20480;-67
2022/01/30 12:20:05;;;;;;;8.60;3.10;;;8.90;99.90;;;;;;5035619;28;20456;-67
2022/01/30 12:22:40;;;;;;;12.17;3.53;;;8.90;99.90;;;;;;5035666;28;20479;-67
2022/01/30 12:25:46;;;;;;;12.90;3.00;;;8.90;99.90;;;;;;5035553;28;20450;-67
2022/01/30 12:28:14;;;;;;;11.10;3.40;;;8.90;99.90;;;;;;5035879;28;20435;-67
2022/01/30 12:30:50;;;;;;;8.53;2.83;;;9.00;99.90;;;;;;5035240;28;20830;-68
2022/01/30 12:33:38;;;;;;;9.60;2.93;;;9.20;99.90;;;;;;5035823;28;20441;-67
2022/01/30 12:36:12;;;;;;;12.40;2.60;;;9.30;99.90;;;;;;5036219;28;20538;-67
2022/01/30 12:38:39;;;;;;;4.97;3.00;;;9.50;99.90;;;;;;5035748;28;20473;-67
2022/01/30 12:41:14;;;;;;;11.57;3.00;;;9.80;99.90;;;;;;5035577;28;20478;-67
2022/01/30 12:43:40;;;;;;;7.13;3.73;;;10.10;99.90;;;;;;5035551;28;20472;-67
2022/01/30 12:46:08;;;;;;;10.23;2.60;;;10.20;99.90;;;;;;5035437;28;20784;-68
2022/01/30 12:48:35;;;;;;;5.23;2.37;;;10.30;99.90;;;;;;5035327;28;20458;-67
2022/01/30 12:51:07;;;;;;;6.10;2.47;;;10.20;98.50;;;;;;5035502;28;20481;-67
2022/01/30 12:53:36;;;;;;;7.97;2.80;;;10.20;97.70;;;;;;5035416;28;20436;-68
2022/01/30 12:56:04;;;;;;;8.03;2.40;;;10.20;96.80;;;;;;5035443;28;20477;-67
2022/01/30 12:58:34;;;;;;;6.83;2.30;;;10.30;96.20;;;;;;5035328;28;20494;-68
2022/01/30 13:01:12;;;;;;;8.90;2.07;;;10.60;97.50;;;;;;5036254;28;20488;-68
2022/01/30 13:03:39;;;;;;;9.30;2.60;;;10.70;95.50;;;;;;5035983;28;20456;-68
2022/01/30 13:06:07;;;;;;;11.77;3.23;;;10.80;95.30;;;;;;5035296;28;20881;-68
2022/01/30 13:08:49;;;;;;;9.67;2.73;;;10.70;94.80;;;;;;5036607;28;20452;-67
2022/01/30 13:11:21;;;;;;;8.50;3.43;;;10.60;94.60;;;;;;5035456;28;21000;-68
2022/01/30 13:13:55;;;;;;;8.30;3.03;;;10.40;94.10;;;;;;5035582;28;20452;-68
2022/01/30 13:16:23;;;;;;;8.33;2.60;;;10.30;95.30;;;;;;5035463;28;20552;-68
2022/01/30 13:18:50;;;;;;;7.00;3.53;;;10.20;94.90;;;;;;5035173;28;20451;-68
2022/01/30 13:21:23;;;;;;;8.13;2.80;;;10.00;95.20;;;;;;5035003;28;20481;-68
2022/01/30 13:23:50;;;;;;;3.33;2.30;;;10.00;95.90;;;;;;5035782;28;20444;-69
2022/01/30 13:26:31;;;;;;;8.83;2.63;;;9.90;96.50;;;;;;5035472;28;20448;-68
2022/01/30 13:28:58;;;;;;;9.83;2.50;;;9.80;96.90;;;;;;5036002;28;20461;-69
2022/01/30 13:31:26;;;;;;;7.60;2.57;;;9.70;97.40;;;;;;5039543;28;20527;-68
2022/01/30 13:34:18;;;;;;;10.50;2.67;;;9.70;98.20;;;;;;5036452;28;20813;-68
2022/01/30 13:36:53;;;;;;;7.10;2.00;;;9.50;97.50;;;;;;5034994;28;20476;-68
2022/01/30 13:39:27;;;;;;;5.17;2.57;;;9.40;98.20;;;;;;5034861;28;20482;-68
2022/01/30 13:42:05;;;;;;;6.90;3.13;;;9.20;97.40;;;;;;5034598;28;20495;-68
2022/01/30 13:44:49;;;;;;;4.27;2.40;;;9.20;98.00;;;;;;5035986;28;20616;-68
2022/01/30 13:47:18;;;;;;;8.30;2.00;;;9.40;97.50;;;;;;5034763;28;20443;-67
2022/01/30 13:49:49;;;;;;;10.43;2.83;;;9.50;97.10;;;;;;5034818;28;20444;-69
2022/01/30 13:52:19;;;;;;;7.13;2.80;;;9.40;96.40;;;;;;5034521;28;20907;-68
2022/01/30 13:54:59;;;;;;;9.33;3.00;;;9.40;96.90;;;;;;5035110;28;20459;-68
2022/01/30 13:57:35;;;;;;;7.40;3.00;;;9.40;97.10;;;;;;5034820;28;20496;-68
2022/01/30 14:00:08;;;;;;;7.40;2.83;;;9.50;97.80;;;;;;5034408;28;20441;-68
2022/01/30 14:02:35;;;;;;;9.23;2.73;;;9.50;97.60;;;;;;5034114;28;20476;-69
2022/01/30 14:05:24;;;;;;;6.03;2.80;;;9.50;96.50;;;;;;5034480;28;20979;-69
2022/01/30 14:07:53;;;;;;;10.57;3.33;;;9.40;97.50;;;;;;5034711;28;20455;-69
2022/01/30 14:10:21;;;;;;;4.73;1.90;;;9.40;96.60;;;;;;5034669;28;20847;-68
2022/01/30 14:12:50;;;;;;;9.00;2.60;;;9.40;96.70;;;;;;5034512;28;20501;-68
2022/01/30 14:15:20;;;;;;;6.10;2.50;;;9.30;96.30;;;;;;5034463;28;20466;-67
2022/01/30 14:18:02;;;;;;;13.10;2.57;;;9.30;96.30;;;;;;5034826;28;20641;-68
2022/01/30 14:20:31;;;;;;;8.40;2.47;;;9.20;96.50;;;;;;5033989;28;20448;-68
2022/01/30 14:23:08;;;;;;;5.93;2.07;;;9.00;97.20;;;;;;5034492;28;20459;-68
2022/01/30 14:25:35;;;;;;;6.80;2.17;;;9.00;96.80;;;;;;5034409;28;20440;-68
2022/01/30 14:28:02;;;;;;;8.30;3.20;;;8.80;96.80;;;;;;5034177;28;20823;-68
2022/01/30 14:30:39;;;;;;;7.47;2.70;;;8.70;97.40;;;;;;5034610;28;20456;-68
2022/01/30 14:33:06;;;;;;;9.13;2.97;;;8.70;97.90;;;;;;5034566;28;20851;-68
2022/01/30 14:35:36;;;;;;;6.10;2.30;;;8.80;98.10;;;;;;5034433;28;20465;-68
2022/01/30 14:38:06;;;;;;;7.90;3.00;;;8.80;98.90;;;;;;5034460;28;20504;-67
2022/01/30 14:40:37;;;;;;;6.37;2.50;;;8.90;98.60;;;;;;5034919;28;20436;-70
2022/01/30 14:43:04;;;;;;;7.63;2.37;;;9.00;98.50;;;;;;5038452;28;20451;-68
2022/01/30 14:45:31;;;;;;;4.73;2.03;;;9.00;98.40;;;;;;5037966;28;20459;-68
2022/01/30 14:47:58;;;;;;;11.30;3.70;;;9.00;98.50;;;;;;5037693;28;20457;-68
2022/01/30 14:50:24;;;;;;;8.77;3.43;;;9.10;98.60;;;;;;5038691;28;20452;-69
2022/01/30 14:52:51;;;;;;;9.77;3.17;;;9.10;99.70;;;;;;5038303;28;20461;-68
2022/01/30 14:55:20;;;;;;;11.00;4.07;;;9.10;98.60;;;;;;5037689;28;20459;-67
2022/01/30 14:57:48;;;;;;;7.17;2.20;;;9.10;99.20;;;;;;5037735;28;20472;-67
2022/01/30 15:00:18;;;;;;;10.60;3.07;;;9.00;97.90;;;;;;5039135;28;20450;-68
2022/01/30 15:02:45;;;;;;;11.07;3.40;;;8.80;98.30;;;;;;5042140;28;20444;-67
2022/01/30 15:05:11;;;;;;;5.43;2.23;;;8.80;98.80;;;;;;5043225;28;20451;-68
2022/01/30 15:07:38;;;;;;;9.20;2.50;;;8.90;99.70;;;;;;5037401;28;20955;-67
2022/01/30 15:10:07;;;;;;;5.27;2.23;;;8.90;98.90;;;;;;5037085;28;20972;-67
2022/01/30 15:12:36;;;;;;;7.80;2.80;;;9.00;98.80;;;;;;5037743;28;20869;-68
2022/01/30 15:15:03;;;;;;;8.87;2.83;;;9.00;98.20;;;;;;5040050;28;20543;-68
2022/01/30 15:17:33;;;;;;;8.37;2.57;;;9.00;98.60;;;;;;5036796;28;20476;-68
2022/01/30 15:20:00;;;;;;;5.97;2.13;;;9.00;98.40;;;;;;5036995;28;20465;-67
2022/01/30 15:22:27;;;;;;;8.63;2.67;;;9.10;98.30;;;;;;5036896;28;20481;-67
2022/01/30 15:24:54;;;;;;;5.07;2.50;;;9.10;98.70;;;;;;5036935;28;20460;-67
2022/01/30 15:27:22;;;;;;;8.77;2.80;;;9.10;98.70;;;;;;5036948;28;20811;-68
2022/01/30 15:29:50;;;;;;;11.83;3.17;;;9.10;99.00;;;;;;5036673;28;20444;-69
2022/01/30 15:32:17;;;;;;;9.77;3.67;;;9.00;99.00;;;;;;5036632;28;20472;-68
2022/01/30 15:34:44;;;;;;;10.80;2.80;;;8.90;98.60;;;;;;5036422;28;20447;-69
2022/01/30 15:37:11;;;;;;;9.83;2.60;;;8.80;99.10;;;;;;5037492;28;20523;-68
2022/01/30 15:39:38;;;;;;;7.77;2.77;;;8.70;99.40;;;;;;5036544;28;20436;-69
2022/01/30 15:42:06;;;;;;;6.70;2.50;;;8.50;99.70;;;;;;5036525;28;20479;-69
2022/01/30 15:49:00;;;;;;;11.93;3.80;;;8.40;99.90;;;;;;5036446;28;20452;-68
2022/01/30 15:50:11;;;;;;;4.60;2.47;;;8.20;99.90;;;;;;5036292;28;20578;-68
2022/01/30 15:52:38;;;;;;;9.97;3.30;;;8.10;99.90;;;;;;5035490;28;20889;-69
2022/01/30 15:55:05;;;;;;;9.83;3.10;;;8.00;99.90;;;;;;5036334;28;20463;-69
2022/01/30 15:57:32;;;;;;;9.43;3.63;;;8.00;99.90;;;;;;5036160;28;20529;-69
2022/01/30 15:59:59;;;;;;;6.83;2.87;;;8.00;99.90;;;;;;5036178;28;20452;-69
2022/01/30 16:02:27;;;;;;;11.30;3.77;;;8.00;99.90;;;;;;5035846;28;20508;-68
2022/01/30 16:04:55;;;;;;;8.90;2.73;;;8.00;99.90;;;;;;5036003;28;20478;-68
2022/01/30 16:07:23;;;;;;;10.73;2.73;;;7.90;99.90;;;;;;5035987;28;20931;-69
2022/01/30 16:09:52;;;;;;;13.03;3.60;;;7.90;99.90;;;;;;5036028;28;20459;-67
2022/01/30 16:12:37;;;;;;;6.80;4.50;;;7.90;99.90;;;;;;5035891;28;20474;-68
2022/01/30 16:17:51;;;;;;;10.00;3.33;;;7.80;99.90;;;;;;5035793;28;20498;-67
2022/01/30 16:20:18;;;;;;;11.60;2.93;;;7.80;99.90;;;;;;5035677;28;20791;-67
2022/01/30 16:22:44;;;;;;;11.10;4.40;;;7.80;99.90;;;;;;5035728;28;20453;-67
2022/01/30 16:25:11;;;;;;;16.70;5.87;;;7.70;99.90;;;;;;5035816;28;20459;-68
2022/01/30 16:27:38;;;;;;;10.23;4.83;;;7.70;99.90;;;;;;5035527;28;20484;-68
2022/01/30 16:30:06;;;;;;;9.10;4.80;;;7.60;99.90;;;;;;5035759;28;20452;-67
2022/01/30 16:32:33;;;;;;;11.53;3.40;;;7.50;99.90;;;;;;5035138;28;20483;-68
2022/01/30 16:35:01;;;;;;;7.83;3.90;;;7.40;99.90;;;;;;5039248;28;20452;-67
2022/01/30 16:37:28;;;;;;;25.00;10.27;;;7.40;99.90;;;;;;5039684;28;20851;-67
2022/01/30 16:39:55;;;;;;;37.73;14.57;;;7.30;99.90;;;;;;5035306;28;20521;-67
2022/01/30 16:42:24;;;;;;;24.00;7.73;;;7.20;99.90;;;;;;5035042;28;20474;-68
2022/01/30 16:44:58;;;;;;;23.40;9.60;;;7.20;99.90;;;;;;5035254;28;20780;-68
2022/01/30 16:47:30;;;;;;;17.43;8.70;;;7.20;99.90;;;;;;5035319;28;20487;-67
2022/01/30 16:49:56;;;;;;;16.13;6.07;;;7.10;99.90;;;;;;5035307;28;20440;-68
2022/01/30 16:52:25;;;;;;;18.30;5.77;;;7.10;99.90;;;;;;5035722;28;20953;-67
2022/01/30 16:54:54;;;;;;;10.43;4.13;;;7.10;99.90;;;;;;5035015;28;20457;-68
2022/01/30 16:57:21;;;;;;;14.57;4.63;;;7.00;99.90;;;;;;5035013;28;20518;-68
2022/01/30 16:59:48;;;;;;;11.03;3.70;;;7.00;99.90;;;;;;5035007;28;20462;-68
2022/01/30 17:02:15;;;;;;;9.07;3.00;;;6.90;99.90;;;;;;5034415;28;20479;-67
2022/01/30 17:04:41;;;;;;;11.43;4.00;;;6.80;99.90;;;;;;5034712;28;20463;-68
2022/01/30 17:07:08;;;;;;;13.93;3.83;;;6.80;99.90;;;;;;5034474;28;20568;-68
2022/01/30 17:09:38;;;;;;;18.13;6.20;;;6.80;99.90;;;;;;5034321;28;20935;-67
2022/01/30 17:12:16;;;;;;;9.53;4.00;;;6.70;99.90;;;;;;5034548;28;20475;-68
2022/01/30 17:14:46;;;;;;;14.43;3.97;;;6.70;99.90;;;;;;5034545;28;20496;-68
2022/01/30 17:17:13;;;;;;;8.23;4.47;;;6.60;99.90;;;;;;5034457;28;20563;-67
2022/01/30 17:19:39;;;;;;;10.20;3.40;;;6.60;99.90;;;;;;5034938;28;20464;-68
2022/01/30 17:22:06;;;;;;;8.13;3.37;;;6.50;99.90;;;;;;5035035;28;20475;-67
2022/01/30 17:24:33;;;;;;;8.40;3.13;;;6.40;99.90;;;;;;5034593;28;20452;-68
2022/01/30 17:27:01;;;;;;;13.70;3.13;;;6.30;99.90;;;;;;5034351;28;20461;-68
2022/01/30 17:29:28;;;;;;;8.80;4.10;;;6.30;99.90;;;;;;5035846;28;20458;-68
2022/01/30 17:31:55;;;;;;;12.07;5.10;;;6.20;99.90;;;;;;5035012;28;20477;-68
2022/01/30 17:34:22;;;;;;;12.83;5.50;;;6.20;99.90;;;;;;5034839;28;20455;-68
2022/01/30 17:36:49;;;;;;;13.60;5.03;;;6.20;99.90;;;;;;5034444;28;20456;-68
2022/01/30 17:39:15;;;;;;;9.70;4.30;;;6.10;99.90;;;;;;5037814;28;20486;-68
2022/01/30 17:41:43;;;;;;;12.87;4.60;;;6.10;99.90;;;;;;5036731;28;20474;-67
2022/01/30 17:44:12;;;;;;;16.23;5.47;;;6.10;99.90;;;;;;5035141;28;20459;-68
2022/01/30 17:46:39;;;;;;;11.07;4.10;;;6.00;99.90;;;;;;5034316;28;20457;-67
2022/01/30 17:49:06;;;;;;;11.63;4.87;;;5.90;99.90;;;;;;5034549;28;20467;-67
2022/01/30 17:51:33;;;;;;;11.73;5.13;;;5.90;99.90;;;;;;5034064;28;20481;-67
2022/01/30 17:54:00;;;;;;;8.60;3.87;;;5.80;99.90;;;;;;5033894;28;20466;-67
2022/01/30 17:56:29;;;;;;;10.50;4.70;;;5.80;99.90;;;;;;5033965;28;20456;-68
2022/01/30 17:58:56;;;;;;;10.30;3.77;;;5.80;99.90;;;;;;5033524;28;20997;-69
2022/01/30 18:01:24;;;;;;;13.53;3.93;;;5.80;99.90;;;;;;5033497;28;20485;-68
2022/01/30 18:03:50;;;;;;;8.30;3.87;;;5.70;99.90;;;;;;5034620;28;20458;-68
2022/01/30 18:06:18;;;;;;;11.83;4.60;;;5.70;99.90;;;;;;5035651;28;20466;-69
2022/01/30 18:08:46;;;;;;;11.30;4.43;;;5.60;99.90;;;;;;5038667;28;20450;-68
2022/01/30 18:11:14;;;;;;;12.87;4.47;;;5.60;99.90;;;;;;5033726;28;20475;-68